メインページ
METAR-TAF:

METAR-TAF

空港 :

Griffiss_Air_Force_Base

Rome, ニューヨーク, アメリカ合衆国

緯度: 43-14N, 経度: 075-24W, 海抜: 154m

現時点の気象観測

当レポートは26分前の02:15(UTC)に作成
西/北西の風 8kt
気温 -6°C
湿度 86%
気圧 1022 hPa
視程: 16.1km
高度2700ftの雲は散在している

METAR: KRME 070215Z AUTO 30008KT 10SM SCT027 M06/M08 A3018 RMK AO2 T10611083

時間: 21:41 (02:41 UTC)

予報

当レポートは3時間14分前の23:27(UTC)に作成
予報は07日の 00時(UTC)から 07日の 24時(UTC)まで有効
西/北西の風 5kt
視程: 10km
高度1500ftの雲は散在している
高度4500ftの曇り
07日の 00時(UTC)から 07日の 04時(UTC)まで一時的に
高度2500ftの曇り
弱いにわか雪
07日の 0400時(UTC)から
北西の風 4kt
視程: 10km
高度3500ftの曇り
07日の 0900時(UTC)から
変向風 4kt
視程: 10km
高度2500ftの曇り
弱いにわか雪
07日の 1500時(UTC)から
西の風 7kt
視程: 10km
高度3500ftの曇り

TAF: KRME 062327Z 0700/0724 30005KT P6SM SCT015 OVC045 TEMPO 0700/0704 -SHSN OVC025 FM070400 32004KT P6SM OVC035 FM070900 VRB04KT P6SM -SHSN OVC025 FM071500 28007KT P6SM OVC035

4,000以上の空港の気象観測と天気予報(METAR報とTAF報)

利用可能な観測所は地図上に黄色い丸と赤い丸で示す。

丸の上にカーソルを重ねると観測所名を参照できる。

次にクリックすると気象観測と天気予報を参照できる。

マップの切り替え:黒色「×」印の緑ボタンをクリックして拡大、「-」印の緑ボタンをクリックして縮小、緑色の三角印をクリックして隣りの地図に切り替え


METAR-TAF: